sensor_id;sensor_type;location;lat;lon;timestamp;P1;durP1;ratioP1;P2;durP2;ratioP2
5137;SDS011;53959;53.626;11.410;2022-08-19T00:01:15;34.63;;;25.60;;
5137;SDS011;53959;53.626;11.410;2022-08-19T00:03:40;35.27;;;26.00;;
5137;SDS011;53959;53.626;11.410;2022-08-19T00:06:06;30.43;;;24.43;;
5137;SDS011;53959;53.626;11.410;2022-08-19T00:08:31;34.77;;;25.30;;
5137;SDS011;53959;53.626;11.410;2022-08-19T00:10:57;42.53;;;25.73;;
5137;SDS011;53959;53.626;11.410;2022-08-19T00:13:22;36.13;;;25.77;;
5137;SDS011;53959;53.626;11.410;2022-08-19T00:15:48;42.50;;;24.90;;
5137;SDS011;53959;53.626;11.410;2022-08-19T00:18:13;34.60;;;24.60;;
5137;SDS011;53959;53.626;11.410;2022-08-19T00:20:39;32.80;;;25.30;;
5137;SDS011;53959;53.626;11.410;2022-08-19T00:23:05;44.00;;;25.60;;
5137;SDS011;53959;53.626;11.410;2022-08-19T00:25:31;31.93;;;26.17;;
5137;SDS011;53959;53.626;11.410;2022-08-19T00:27:57;31.60;;;25.13;;
5137;SDS011;53959;53.626;11.410;2022-08-19T00:30:24;32.73;;;25.47;;
5137;SDS011;53959;53.626;11.410;2022-08-19T00:32:50;38.97;;;27.17;;
5137;SDS011;53959;53.626;11.410;2022-08-19T00:35:16;34.53;;;25.17;;
5137;SDS011;53959;53.626;11.410;2022-08-19T00:37:42;28.20;;;23.43;;
5137;SDS011;53959;53.626;11.410;2022-08-19T00:40:08;29.10;;;24.30;;
5137;SDS011;53959;53.626;11.410;2022-08-19T00:42:36;30.93;;;24.63;;
5137;SDS011;53959;53.626;11.410;2022-08-19T00:45:03;34.20;;;26.13;;
5137;SDS011;53959;53.626;11.410;2022-08-19T00:47:36;32.17;;;23.90;;
5137;SDS011;53959;53.626;11.410;2022-08-19T00:50:02;36.70;;;25.43;;
5137;SDS011;53959;53.626;11.410;2022-08-19T00:52:30;43.70;;;26.00;;
5137;SDS011;53959;53.626;11.410;2022-08-19T00:54:59;35.20;;;25.67;;
5137;SDS011;53959;53.626;11.410;2022-08-19T00:57:30;35.13;;;26.77;;
5137;SDS011;53959;53.626;11.410;2022-08-19T01:00:04;33.20;;;27.17;;
5137;SDS011;53959;53.626;11.410;2022-08-19T01:02:32;31.60;;;25.00;;
5137;SDS011;53959;53.626;11.410;2022-08-19T01:04:59;48.13;;;26.03;;
5137;SDS011;53959;53.626;11.410;2022-08-19T01:07:27;39.23;;;25.70;;
5137;SDS011;53959;53.626;11.410;2022-08-19T01:09:53;39.30;;;28.20;;
5137;SDS011;53959;53.626;11.410;2022-08-19T01:12:19;39.13;;;26.70;;
5137;SDS011;53959;53.626;11.410;2022-08-19T01:14:45;33.97;;;24.70;;
5137;SDS011;53959;53.626;11.410;2022-08-19T01:17:11;47.40;;;27.57;;
5137;SDS011;53959;53.626;11.410;2022-08-19T01:19:40;33.80;;;25.30;;
5137;SDS011;53959;53.626;11.410;2022-08-19T01:22:27;35.10;;;27.40;;
5137;SDS011;53959;53.626;11.410;2022-08-19T01:25:07;35.57;;;27.60;;
5137;SDS011;53959;53.626;11.410;2022-08-19T01:27:37;38.57;;;27.13;;
5137;SDS011;53959;53.626;11.410;2022-08-19T01:30:07;36.47;;;27.10;;
5137;SDS011;53959;53.626;11.410;2022-08-19T01:32:34;39.43;;;25.83;;
5137;SDS011;53959;53.626;11.410;2022-08-19T01:35:00;45.87;;;27.60;;
5137;SDS011;53959;53.626;11.410;2022-08-19T01:37:27;33.47;;;25.73;;
5137;SDS011;53959;53.626;11.410;2022-08-19T01:39:55;34.97;;;25.97;;
5137;SDS011;53959;53.626;11.410;2022-08-19T01:42:21;39.77;;;28.30;;
5137;SDS011;53959;53.626;11.410;2022-08-19T01:44:47;43.73;;;28.57;;
5137;SDS011;53959;53.626;11.410;2022-08-19T01:47:12;38.47;;;26.43;;
5137;SDS011;53959;53.626;11.410;2022-08-19T01:49:38;34.27;;;26.57;;
5137;SDS011;53959;53.626;11.410;2022-08-19T01:52:04;38.60;;;29.73;;
5137;SDS011;53959;53.626;11.410;2022-08-19T01:54:30;37.60;;;27.37;;
5137;SDS011;53959;53.626;11.410;2022-08-19T01:57:05;38.57;;;29.13;;
5137;SDS011;53959;53.626;11.410;2022-08-19T01:59:34;38.80;;;27.30;;
5137;SDS011;53959;53.626;11.410;2022-08-19T02:02:01;39.40;;;28.67;;
5137;SDS011;53959;53.626;11.410;2022-08-19T02:04:32;53.70;;;28.87;;
5137;SDS011;53959;53.626;11.410;2022-08-19T02:06:59;40.47;;;28.23;;
5137;SDS011;53959;53.626;11.410;2022-08-19T02:09:24;38.80;;;27.47;;
5137;SDS011;53959;53.626;11.410;2022-08-19T02:11:50;46.23;;;27.70;;
5137;SDS011;53959;53.626;11.410;2022-08-19T02:14:15;50.77;;;29.50;;
5137;SDS011;53959;53.626;11.410;2022-08-19T02:16:41;36.40;;;29.17;;
5137;SDS011;53959;53.626;11.410;2022-08-19T02:19:06;41.63;;;28.57;;
5137;SDS011;53959;53.626;11.410;2022-08-19T02:21:32;38.80;;;28.37;;
5137;SDS011;53959;53.626;11.410;2022-08-19T02:23:58;36.60;;;27.27;;
5137;SDS011;53959;53.626;11.410;2022-08-19T02:26:24;43.10;;;29.87;;
5137;SDS011;53959;53.626;11.410;2022-08-19T02:28:51;40.13;;;28.43;;
5137;SDS011;53959;53.626;11.410;2022-08-19T02:31:18;41.60;;;28.97;;
5137;SDS011;53959;53.626;11.410;2022-08-19T02:33:46;38.73;;;29.10;;
5137;SDS011;53959;53.626;11.410;2022-08-19T02:36:13;41.73;;;27.97;;
5137;SDS011;53959;53.626;11.410;2022-08-19T02:38:40;35.03;;;27.60;;
5137;SDS011;53959;53.626;11.410;2022-08-19T02:41:07;38.00;;;29.27;;
5137;SDS011;53959;53.626;11.410;2022-08-19T02:43:37;44.43;;;29.63;;
5137;SDS011;53959;53.626;11.410;2022-08-19T02:46:21;48.10;;;29.03;;
5137;SDS011;53959;53.626;11.410;2022-08-19T02:48:53;44.63;;;29.33;;
5137;SDS011;53959;53.626;11.410;2022-08-19T02:51:24;39.00;;;30.30;;
5137;SDS011;53959;53.626;11.410;2022-08-19T02:53:55;52.80;;;30.63;;
5137;SDS011;53959;53.626;11.410;2022-08-19T02:56:21;48.57;;;32.83;;
5137;SDS011;53959;53.626;11.410;2022-08-19T02:58:47;49.43;;;32.10;;
5137;SDS011;53959;53.626;11.410;2022-08-19T03:01:26;53.60;;;33.93;;
5137;SDS011;53959;53.626;11.410;2022-08-19T03:03:54;47.77;;;31.40;;
5137;SDS011;53959;53.626;11.410;2022-08-19T03:06:24;46.30;;;30.90;;
5137;SDS011;53959;53.626;11.410;2022-08-19T03:08:50;41.03;;;31.60;;
5137;SDS011;53959;53.626;11.410;2022-08-19T03:13:53;48.27;;;33.97;;
5137;SDS011;53959;53.626;11.410;2022-08-19T03:16:19;52.30;;;32.60;;
5137;SDS011;53959;53.626;11.410;2022-08-19T03:18:46;46.07;;;33.60;;
5137;SDS011;53959;53.626;11.410;2022-08-19T03:21:15;54.87;;;33.83;;
5137;SDS011;53959;53.626;11.410;2022-08-19T03:23:43;43.70;;;32.97;;
5137;SDS011;53959;53.626;11.410;2022-08-19T03:26:09;40.80;;;32.70;;
5137;SDS011;53959;53.626;11.410;2022-08-19T03:28:35;53.67;;;34.23;;
5137;SDS011;53959;53.626;11.410;2022-08-19T03:31:03;41.17;;;31.87;;
5137;SDS011;53959;53.626;11.410;2022-08-19T03:33:31;43.37;;;32.60;;
5137;SDS011;53959;53.626;11.410;2022-08-19T03:38:27;45.93;;;32.90;;
5137;SDS011;53959;53.626;11.410;2022-08-19T03:40:53;56.37;;;32.53;;
5137;SDS011;53959;53.626;11.410;2022-08-19T03:43:18;49.47;;;34.60;;
5137;SDS011;53959;53.626;11.410;2022-08-19T03:45:44;42.40;;;33.27;;
5137;SDS011;53959;53.626;11.410;2022-08-19T03:48:10;59.00;;;34.03;;
5137;SDS011;53959;53.626;11.410;2022-08-19T03:50:38;47.53;;;32.40;;
5137;SDS011;53959;53.626;11.410;2022-08-19T03:53:05;53.07;;;34.50;;
5137;SDS011;53959;53.626;11.410;2022-08-19T03:55:32;47.17;;;33.63;;
5137;SDS011;53959;53.626;11.410;2022-08-19T03:57:57;49.10;;;35.57;;
5137;SDS011;53959;53.626;11.410;2022-08-19T04:00:23;49.20;;;35.50;;
5137;SDS011;53959;53.626;11.410;2022-08-19T04:02:48;55.37;;;36.40;;
5137;SDS011;53959;53.626;11.410;2022-08-19T04:05:14;58.13;;;37.23;;
5137;SDS011;53959;53.626;11.410;2022-08-19T04:07:40;52.43;;;36.30;;
5137;SDS011;53959;53.626;11.410;2022-08-19T04:10:05;59.23;;;37.87;;
5137;SDS011;53959;53.626;11.410;2022-08-19T04:12:31;53.13;;;36.23;;
5137;SDS011;53959;53.626;11.410;2022-08-19T04:14:57;55.90;;;36.73;;
5137;SDS011;53959;53.626;11.410;2022-08-19T04:17:23;58.33;;;38.57;;
5137;SDS011;53959;53.626;11.410;2022-08-19T04:19:48;63.40;;;38.20;;
5137;SDS011;53959;53.626;11.410;2022-08-19T04:22:14;62.73;;;38.80;;
5137;SDS011;53959;53.626;11.410;2022-08-19T04:24:40;60.00;;;38.20;;
5137;SDS011;53959;53.626;11.410;2022-08-19T04:27:05;55.47;;;37.90;;
5137;SDS011;53959;53.626;11.410;2022-08-19T04:29:31;57.80;;;38.43;;
5137;SDS011;53959;53.626;11.410;2022-08-19T04:31:57;79.63;;;41.70;;
5137;SDS011;53959;53.626;11.410;2022-08-19T04:34:24;70.10;;;40.77;;
5137;SDS011;53959;53.626;11.410;2022-08-19T04:36:53;58.43;;;39.70;;
5137;SDS011;53959;53.626;11.410;2022-08-19T04:39:22;66.50;;;40.83;;
5137;SDS011;53959;53.626;11.410;2022-08-19T04:42:09;59.03;;;38.07;;
5137;SDS011;53959;53.626;11.410;2022-08-19T04:44:53;62.57;;;39.50;;
5137;SDS011;53959;53.626;11.410;2022-08-19T04:47:19;62.60;;;41.00;;
5137;SDS011;53959;53.626;11.410;2022-08-19T04:49:45;68.57;;;40.03;;
5137;SDS011;53959;53.626;11.410;2022-08-19T04:52:11;62.60;;;38.83;;
5137;SDS011;53959;53.626;11.410;2022-08-19T04:54:36;54.60;;;38.30;;
5137;SDS011;53959;53.626;11.410;2022-08-19T04:57:02;57.23;;;38.40;;
5137;SDS011;53959;53.626;11.410;2022-08-19T04:59:30;59.43;;;38.57;;
5137;SDS011;53959;53.626;11.410;2022-08-19T05:01:57;53.80;;;37.57;;
5137;SDS011;53959;53.626;11.410;2022-08-19T05:04:22;55.80;;;36.93;;
5137;SDS011;53959;53.626;11.410;2022-08-19T05:06:48;53.80;;;35.80;;
5137;SDS011;53959;53.626;11.410;2022-08-19T05:09:16;55.80;;;34.53;;
5137;SDS011;53959;53.626;11.410;2022-08-19T05:11:42;61.70;;;37.00;;
5137;SDS011;53959;53.626;11.410;2022-08-19T05:14:09;57.63;;;38.33;;
5137;SDS011;53959;53.626;11.410;2022-08-19T05:16:37;54.23;;;36.03;;
5137;SDS011;53959;53.626;11.410;2022-08-19T05:19:04;60.97;;;38.23;;
5137;SDS011;53959;53.626;11.410;2022-08-19T05:21:48;48.43;;;34.63;;
5137;SDS011;53959;53.626;11.410;2022-08-19T05:24:33;54.47;;;34.93;;
5137;SDS011;53959;53.626;11.410;2022-08-19T05:26:59;57.27;;;38.50;;
5137;SDS011;53959;53.626;11.410;2022-08-19T05:29:27;58.30;;;35.00;;
5137;SDS011;53959;53.626;11.410;2022-08-19T05:31:54;58.13;;;37.30;;
5137;SDS011;53959;53.626;11.410;2022-08-19T05:34:21;55.50;;;38.90;;
5137;SDS011;53959;53.626;11.410;2022-08-19T05:36:49;60.60;;;37.93;;
5137;SDS011;53959;53.626;11.410;2022-08-19T05:39:20;64.60;;;40.60;;
5137;SDS011;53959;53.626;11.410;2022-08-19T05:41:47;57.23;;;36.77;;
5137;SDS011;53959;53.626;11.410;2022-08-19T05:44:15;67.27;;;36.37;;
5137;SDS011;53959;53.626;11.410;2022-08-19T05:46:42;59.43;;;38.37;;
5137;SDS011;53959;53.626;11.410;2022-08-19T05:49:12;56.80;;;37.87;;
5137;SDS011;53959;53.626;11.410;2022-08-19T05:51:38;50.37;;;35.90;;
5137;SDS011;53959;53.626;11.410;2022-08-19T05:54:04;54.93;;;35.43;;
5137;SDS011;53959;53.626;11.410;2022-08-19T05:56:32;52.43;;;36.20;;
5137;SDS011;53959;53.626;11.410;2022-08-19T05:58:59;56.30;;;38.40;;
5137;SDS011;53959;53.626;11.410;2022-08-19T06:01:26;50.83;;;36.30;;
5137;SDS011;53959;53.626;11.410;2022-08-19T06:03:52;52.87;;;35.47;;
5137;SDS011;53959;53.626;11.410;2022-08-19T06:06:18;54.20;;;37.53;;
5137;SDS011;53959;53.626;11.410;2022-08-19T06:08:44;67.80;;;39.80;;
5137;SDS011;53959;53.626;11.410;2022-08-19T06:11:30;61.10;;;38.93;;
5137;SDS011;53959;53.626;11.410;2022-08-19T06:14:00;64.13;;;37.80;;
5137;SDS011;53959;53.626;11.410;2022-08-19T06:16:32;54.27;;;36.43;;
5137;SDS011;53959;53.626;11.410;2022-08-19T06:19:00;58.50;;;36.50;;
5137;SDS011;53959;53.626;11.410;2022-08-19T06:21:28;49.07;;;35.73;;
5137;SDS011;53959;53.626;11.410;2022-08-19T06:23:55;60.30;;;38.07;;
5137;SDS011;53959;53.626;11.410;2022-08-19T06:26:22;57.93;;;38.20;;
5137;SDS011;53959;53.626;11.410;2022-08-19T06:28:48;53.90;;;36.13;;
5137;SDS011;53959;53.626;11.410;2022-08-19T06:31:16;54.80;;;37.20;;
5137;SDS011;53959;53.626;11.410;2022-08-19T06:33:45;54.20;;;35.93;;
5137;SDS011;53959;53.626;11.410;2022-08-19T06:36:21;54.73;;;35.43;;
5137;SDS011;53959;53.626;11.410;2022-08-19T06:38:56;56.27;;;37.33;;
5137;SDS011;53959;53.626;11.410;2022-08-19T06:41:23;62.30;;;35.63;;
5137;SDS011;53959;53.626;11.410;2022-08-19T06:43:53;54.00;;;36.73;;
5137;SDS011;53959;53.626;11.410;2022-08-19T06:46:19;54.20;;;36.10;;
5137;SDS011;53959;53.626;11.410;2022-08-19T06:48:46;54.93;;;37.43;;
5137;SDS011;53959;53.626;11.410;2022-08-19T06:51:13;53.13;;;34.77;;
5137;SDS011;53959;53.626;11.410;2022-08-19T06:53:43;59.37;;;36.50;;
5137;SDS011;53959;53.626;11.410;2022-08-19T06:56:11;52.00;;;34.47;;
5137;SDS011;53959;53.626;11.410;2022-08-19T06:58:41;54.33;;;36.57;;
5137;SDS011;53959;53.626;11.410;2022-08-19T07:01:07;55.33;;;33.33;;
5137;SDS011;53959;53.626;11.410;2022-08-19T07:03:34;52.63;;;34.90;;
5137;SDS011;53959;53.626;11.410;2022-08-19T07:06:05;57.73;;;33.57;;
5137;SDS011;53959;53.626;11.410;2022-08-19T07:08:32;51.73;;;35.70;;
5137;SDS011;53959;53.626;11.410;2022-08-19T07:10:59;53.83;;;34.37;;
5137;SDS011;53959;53.626;11.410;2022-08-19T07:13:25;48.23;;;34.07;;
5137;SDS011;53959;53.626;11.410;2022-08-19T07:15:51;46.20;;;32.80;;
5137;SDS011;53959;53.626;11.410;2022-08-19T07:18:18;44.87;;;31.40;;
5137;SDS011;53959;53.626;11.410;2022-08-19T07:20:45;45.37;;;30.90;;
5137;SDS011;53959;53.626;11.410;2022-08-19T07:23:11;44.60;;;30.47;;
5137;SDS011;53959;53.626;11.410;2022-08-19T07:25:37;48.90;;;33.60;;
5137;SDS011;53959;53.626;11.410;2022-08-19T07:28:03;43.23;;;30.43;;
5137;SDS011;53959;53.626;11.410;2022-08-19T07:30:29;47.37;;;31.90;;
5137;SDS011;53959;53.626;11.410;2022-08-19T07:32:55;50.03;;;32.00;;
5137;SDS011;53959;53.626;11.410;2022-08-19T07:35:21;43.87;;;31.63;;
5137;SDS011;53959;53.626;11.410;2022-08-19T07:37:48;42.57;;;29.20;;
5137;SDS011;53959;53.626;11.410;2022-08-19T07:40:14;47.73;;;31.60;;
5137;SDS011;53959;53.626;11.410;2022-08-19T07:42:40;53.20;;;30.80;;
5137;SDS011;53959;53.626;11.410;2022-08-19T07:45:07;45.80;;;31.10;;
5137;SDS011;53959;53.626;11.410;2022-08-19T07:47:34;46.30;;;30.90;;
5137;SDS011;53959;53.626;11.410;2022-08-19T07:49:59;40.83;;;29.30;;
5137;SDS011;53959;53.626;11.410;2022-08-19T07:52:25;49.37;;;29.37;;
5137;SDS011;53959;53.626;11.410;2022-08-19T07:54:50;44.20;;;29.37;;
5137;SDS011;53959;53.626;11.410;2022-08-19T07:57:16;39.67;;;28.57;;
5137;SDS011;53959;53.626;11.410;2022-08-19T07:59:43;42.97;;;28.97;;
5137;SDS011;53959;53.626;11.410;2022-08-19T08:02:09;50.63;;;29.70;;
5137;SDS011;53959;53.626;11.410;2022-08-19T08:04:35;49.17;;;30.40;;
5137;SDS011;53959;53.626;11.410;2022-08-19T08:07:19;52.70;;;31.27;;
5137;SDS011;53959;53.626;11.410;2022-08-19T08:10:05;45.87;;;29.77;;
5137;SDS011;53959;53.626;11.410;2022-08-19T08:12:33;47.17;;;31.80;;
5137;SDS011;53959;53.626;11.410;2022-08-19T08:15:07;49.30;;;30.17;;
5137;SDS011;53959;53.626;11.410;2022-08-19T08:17:41;45.83;;;29.40;;
5137;SDS011;53959;53.626;11.410;2022-08-19T08:20:07;48.47;;;32.87;;
5137;SDS011;53959;53.626;11.410;2022-08-19T08:22:34;47.67;;;30.23;;
5137;SDS011;53959;53.626;11.410;2022-08-19T08:25:19;47.03;;;31.20;;
5137;SDS011;53959;53.626;11.410;2022-08-19T08:27:47;38.97;;;29.23;;
5137;SDS011;53959;53.626;11.410;2022-08-19T08:30:19;43.87;;;28.57;;
5137;SDS011;53959;53.626;11.410;2022-08-19T08:32:46;47.10;;;31.23;;
5137;SDS011;53959;53.626;11.410;2022-08-19T08:35:13;47.27;;;31.83;;
5137;SDS011;53959;53.626;11.410;2022-08-19T08:37:41;50.43;;;32.37;;
5137;SDS011;53959;53.626;11.410;2022-08-19T08:40:28;49.90;;;31.00;;
5137;SDS011;53959;53.626;11.410;2022-08-19T08:45:47;42.47;;;29.57;;
5137;SDS011;53959;53.626;11.410;2022-08-19T08:51:14;42.10;;;28.20;;
5137;SDS011;53959;53.626;11.410;2022-08-19T08:53:45;54.13;;;31.90;;
5137;SDS011;53959;53.626;11.410;2022-08-19T08:56:12;53.43;;;30.17;;
5137;SDS011;53959;53.626;11.410;2022-08-19T09:01:16;43.60;;;29.80;;
5137;SDS011;53959;53.626;11.410;2022-08-19T09:03:42;49.30;;;31.20;;
5137;SDS011;53959;53.626;11.410;2022-08-19T09:08:48;47.57;;;31.30;;
5137;SDS011;53959;53.626;11.410;2022-08-19T09:14:08;42.27;;;29.37;;
5137;SDS011;53959;53.626;11.410;2022-08-19T09:16:57;45.40;;;31.03;;
5137;SDS011;53959;53.626;11.410;2022-08-19T09:19:24;47.50;;;30.87;;
5137;SDS011;53959;53.626;11.410;2022-08-19T09:21:50;42.67;;;31.70;;
5137;SDS011;53959;53.626;11.410;2022-08-19T09:24:15;53.67;;;31.70;;
5137;SDS011;53959;53.626;11.410;2022-08-19T09:26:41;49.60;;;30.90;;
5137;SDS011;53959;53.626;11.410;2022-08-19T09:29:08;49.50;;;33.07;;
5137;SDS011;53959;53.626;11.410;2022-08-19T09:31:35;51.80;;;31.57;;
5137;SDS011;53959;53.626;11.410;2022-08-19T09:34:02;56.67;;;31.57;;
5137;SDS011;53959;53.626;11.410;2022-08-19T09:36:29;45.10;;;30.77;;
5137;SDS011;53959;53.626;11.410;2022-08-19T09:38:58;45.87;;;31.70;;
5137;SDS011;53959;53.626;11.410;2022-08-19T09:41:25;49.50;;;30.23;;
5137;SDS011;53959;53.626;11.410;2022-08-19T09:43:51;41.37;;;30.33;;
5137;SDS011;53959;53.626;11.410;2022-08-19T09:46:20;46.23;;;30.83;;
5137;SDS011;53959;53.626;11.410;2022-08-19T09:48:48;48.07;;;30.90;;
5137;SDS011;53959;53.626;11.410;2022-08-19T09:51:16;44.63;;;29.37;;
5137;SDS011;53959;53.626;11.410;2022-08-19T09:53:44;46.67;;;30.67;;
5137;SDS011;53959;53.626;11.410;2022-08-19T09:56:11;46.17;;;29.60;;
5137;SDS011;53959;53.626;11.410;2022-08-19T09:58:38;43.57;;;29.73;;
5137;SDS011;53959;53.626;11.410;2022-08-19T10:01:05;39.07;;;28.27;;
5137;SDS011;53959;53.626;11.410;2022-08-19T10:03:32;41.83;;;29.17;;
5137;SDS011;53959;53.626;11.410;2022-08-19T10:06:00;41.17;;;28.87;;
5137;SDS011;53959;53.626;11.410;2022-08-19T10:08:29;42.10;;;29.30;;
5137;SDS011;53959;53.626;11.410;2022-08-19T10:10:57;45.17;;;29.47;;
5137;SDS011;53959;53.626;11.410;2022-08-19T10:13:24;58.50;;;37.50;;
5137;SDS011;53959;53.626;11.410;2022-08-19T10:15:52;42.70;;;29.90;;
5137;SDS011;53959;53.626;11.410;2022-08-19T10:18:19;46.70;;;28.80;;
5137;SDS011;53959;53.626;11.410;2022-08-19T10:20:47;41.27;;;28.60;;
5137;SDS011;53959;53.626;11.410;2022-08-19T10:23:14;48.73;;;28.83;;
5137;SDS011;53959;53.626;11.410;2022-08-19T10:25:42;42.77;;;27.53;;
5137;SDS011;53959;53.626;11.410;2022-08-19T10:28:08;42.47;;;28.73;;
5137;SDS011;53959;53.626;11.410;2022-08-19T10:30:36;42.77;;;29.30;;
5137;SDS011;53959;53.626;11.410;2022-08-19T10:33:06;42.87;;;28.27;;
5137;SDS011;53959;53.626;11.410;2022-08-19T10:35:31;45.83;;;30.60;;
5137;SDS011;53959;53.626;11.410;2022-08-19T10:37:58;44.07;;;29.30;;
5137;SDS011;53959;53.626;11.410;2022-08-19T10:40:24;42.50;;;28.87;;
5137;SDS011;53959;53.626;11.410;2022-08-19T10:42:51;53.53;;;29.43;;
5137;SDS011;53959;53.626;11.410;2022-08-19T10:45:17;45.27;;;30.60;;
5137;SDS011;53959;53.626;11.410;2022-08-19T10:47:43;40.40;;;28.47;;
5137;SDS011;53959;53.626;11.410;2022-08-19T10:50:08;41.03;;;28.77;;
5137;SDS011;53959;53.626;11.410;2022-08-19T10:52:53;40.13;;;28.20;;
5137;SDS011;53959;53.626;11.410;2022-08-19T10:55:20;45.53;;;29.50;;
5137;SDS011;53959;53.626;11.410;2022-08-19T10:58:16;40.17;;;28.30;;
5137;SDS011;53959;53.626;11.410;2022-08-19T11:00:51;44.13;;;29.87;;
5137;SDS011;53959;53.626;11.410;2022-08-19T11:03:21;37.73;;;26.33;;
5137;SDS011;53959;53.626;11.410;2022-08-19T11:05:56;35.10;;;26.67;;
5137;SDS011;53959;53.626;11.410;2022-08-19T11:08:26;38.30;;;28.27;;
5137;SDS011;53959;53.626;11.410;2022-08-19T11:10:52;35.20;;;27.17;;
5137;SDS011;53959;53.626;11.410;2022-08-19T11:13:25;38.57;;;27.40;;
5137;SDS011;53959;53.626;11.410;2022-08-19T11:16:01;36.23;;;26.70;;
5137;SDS011;53959;53.626;11.410;2022-08-19T11:18:31;34.33;;;25.60;;
5137;SDS011;53959;53.626;11.410;2022-08-19T11:21:12;34.90;;;25.40;;
5137;SDS011;53959;53.626;11.410;2022-08-19T11:23:42;37.80;;;27.97;;
5137;SDS011;53959;53.626;11.410;2022-08-19T11:26:08;40.00;;;26.53;;
5137;SDS011;53959;53.626;11.410;2022-08-19T11:28:34;41.73;;;28.77;;
5137;SDS011;53959;53.626;11.410;2022-08-19T11:31:00;42.30;;;27.57;;
5137;SDS011;53959;53.626;11.410;2022-08-19T11:33:28;49.70;;;27.43;;
5137;SDS011;53959;53.626;11.410;2022-08-19T11:35:56;35.77;;;26.57;;
5137;SDS011;53959;53.626;11.410;2022-08-19T11:38:24;37.07;;;24.50;;
5137;SDS011;53959;53.626;11.410;2022-08-19T11:40:54;36.97;;;24.27;;
5137;SDS011;53959;53.626;11.410;2022-08-19T11:43:20;43.23;;;26.93;;
5137;SDS011;53959;53.626;11.410;2022-08-19T11:45:46;38.20;;;26.20;;
5137;SDS011;53959;53.626;11.410;2022-08-19T11:48:13;40.40;;;25.27;;
5137;SDS011;53959;53.626;11.410;2022-08-19T11:50:38;33.93;;;22.10;;
5137;SDS011;53959;53.626;11.410;2022-08-19T11:53:06;38.53;;;23.93;;
5137;SDS011;53959;53.626;11.410;2022-08-19T11:55:31;35.70;;;23.40;;
5137;SDS011;53959;53.626;11.410;2022-08-19T11:57:57;37.60;;;24.17;;
5137;SDS011;53959;53.626;11.410;2022-08-19T12:00:22;42.83;;;23.53;;
5137;SDS011;53959;53.626;11.410;2022-08-19T12:02:48;32.40;;;21.67;;
5137;SDS011;53959;53.626;11.410;2022-08-19T12:05:13;27.27;;;20.37;;
5137;SDS011;53959;53.626;11.410;2022-08-19T12:07:39;28.60;;;20.80;;
5137;SDS011;53959;53.626;11.410;2022-08-19T12:10:08;31.10;;;19.80;;
5137;SDS011;53959;53.626;11.410;2022-08-19T12:12:34;27.40;;;20.03;;
5137;SDS011;53959;53.626;11.410;2022-08-19T12:15:00;30.43;;;19.10;;
5137;SDS011;53959;53.626;11.410;2022-08-19T12:17:26;30.47;;;21.37;;
5137;SDS011;53959;53.626;11.410;2022-08-19T12:19:52;32.20;;;20.87;;
5137;SDS011;53959;53.626;11.410;2022-08-19T12:22:18;37.77;;;20.43;;
5137;SDS011;53959;53.626;11.410;2022-08-19T12:24:45;27.97;;;19.70;;
5137;SDS011;53959;53.626;11.410;2022-08-19T12:27:11;26.20;;;20.30;;
5137;SDS011;53959;53.626;11.410;2022-08-19T12:29:36;28.53;;;21.90;;
5137;SDS011;53959;53.626;11.410;2022-08-19T12:32:02;33.23;;;21.17;;
5137;SDS011;53959;53.626;11.410;2022-08-19T12:34:28;32.23;;;23.07;;
5137;SDS011;53959;53.626;11.410;2022-08-19T12:36:55;35.03;;;24.30;;
5137;SDS011;53959;53.626;11.410;2022-08-19T12:39:26;29.30;;;21.13;;
5137;SDS011;53959;53.626;11.410;2022-08-19T12:41:52;50.93;;;22.80;;
5137;SDS011;53959;53.626;11.410;2022-08-19T12:44:18;37.53;;;23.10;;
5137;SDS011;53959;53.626;11.410;2022-08-19T12:46:44;33.13;;;22.80;;
5137;SDS011;53959;53.626;11.410;2022-08-19T12:49:09;33.23;;;22.77;;
5137;SDS011;53959;53.626;11.410;2022-08-19T12:51:35;32.90;;;21.63;;
5137;SDS011;53959;53.626;11.410;2022-08-19T12:54:01;31.77;;;21.93;;
5137;SDS011;53959;53.626;11.410;2022-08-19T12:56:27;31.57;;;22.20;;
5137;SDS011;53959;53.626;11.410;2022-08-19T12:58:52;34.53;;;22.60;;
5137;SDS011;53959;53.626;11.410;2022-08-19T13:01:18;32.60;;;23.50;;
5137;SDS011;53959;53.626;11.410;2022-08-19T13:03:44;32.90;;;24.03;;
5137;SDS011;53959;53.626;11.410;2022-08-19T13:06:10;33.30;;;23.27;;
5137;SDS011;53959;53.626;11.410;2022-08-19T13:08:37;35.13;;;23.20;;
5137;SDS011;53959;53.626;11.410;2022-08-19T13:11:21;31.63;;;21.97;;
5137;SDS011;53959;53.626;11.410;2022-08-19T13:13:49;35.53;;;22.37;;
5137;SDS011;53959;53.626;11.410;2022-08-19T13:16:17;29.37;;;21.20;;
5137;SDS011;53959;53.626;11.410;2022-08-19T13:18:45;35.27;;;23.87;;
5137;SDS011;53959;53.626;11.410;2022-08-19T13:21:12;34.90;;;25.43;;
5137;SDS011;53959;53.626;11.410;2022-08-19T13:23:38;36.83;;;25.93;;
5137;SDS011;53959;53.626;11.410;2022-08-19T13:26:05;38.07;;;24.83;;
5137;SDS011;53959;53.626;11.410;2022-08-19T13:28:32;39.03;;;27.73;;
5137;SDS011;53959;53.626;11.410;2022-08-19T13:31:18;38.37;;;24.70;;
5137;SDS011;53959;53.626;11.410;2022-08-19T13:34:04;42.50;;;25.60;;
5137;SDS011;53959;53.626;11.410;2022-08-19T13:36:31;38.47;;;25.80;;
5137;SDS011;53959;53.626;11.410;2022-08-19T13:38:57;34.97;;;24.10;;
5137;SDS011;53959;53.626;11.410;2022-08-19T13:41:22;34.53;;;24.90;;
5137;SDS011;53959;53.626;11.410;2022-08-19T13:43:48;42.37;;;25.53;;
5137;SDS011;53959;53.626;11.410;2022-08-19T13:46:14;43.60;;;26.80;;
5137;SDS011;53959;53.626;11.410;2022-08-19T13:48:40;38.77;;;26.70;;
5137;SDS011;53959;53.626;11.410;2022-08-19T13:51:06;42.93;;;26.70;;
5137;SDS011;53959;53.626;11.410;2022-08-19T13:53:35;43.17;;;25.97;;
5137;SDS011;53959;53.626;11.410;2022-08-19T13:56:08;43.20;;;27.40;;
5137;SDS011;53959;53.626;11.410;2022-08-19T13:58:35;53.23;;;28.50;;
5137;SDS011;53959;53.626;11.410;2022-08-19T14:01:02;42.47;;;27.40;;
5137;SDS011;53959;53.626;11.410;2022-08-19T14:03:28;41.60;;;25.87;;
5137;SDS011;53959;53.626;11.410;2022-08-19T14:05:55;49.20;;;26.70;;
5137;SDS011;53959;53.626;11.410;2022-08-19T14:08:20;50.50;;;25.70;;
5137;SDS011;53959;53.626;11.410;2022-08-19T14:10:45;58.67;;;25.73;;
5137;SDS011;53959;53.626;11.410;2022-08-19T14:13:13;43.63;;;24.97;;
5137;SDS011;53959;53.626;11.410;2022-08-19T14:15:42;42.07;;;24.97;;
5137;SDS011;53959;53.626;11.410;2022-08-19T14:18:09;41.00;;;24.97;;
5137;SDS011;53959;53.626;11.410;2022-08-19T14:20:35;44.90;;;26.00;;
5137;SDS011;53959;53.626;11.410;2022-08-19T14:23:00;42.67;;;25.30;;
5137;SDS011;53959;53.626;11.410;2022-08-19T14:25:27;39.73;;;23.47;;
5137;SDS011;53959;53.626;11.410;2022-08-19T14:27:55;42.73;;;24.73;;
5137;SDS011;53959;53.626;11.410;2022-08-19T14:30:23;39.20;;;25.00;;
5137;SDS011;53959;53.626;11.410;2022-08-19T14:32:52;40.97;;;25.13;;
5137;SDS011;53959;53.626;11.410;2022-08-19T14:35:23;40.67;;;25.43;;
5137;SDS011;53959;53.626;11.410;2022-08-19T14:37:50;39.47;;;25.10;;
5137;SDS011;53959;53.626;11.410;2022-08-19T14:40:20;39.60;;;24.33;;
5137;SDS011;53959;53.626;11.410;2022-08-19T14:42:56;35.33;;;22.27;;
5137;SDS011;53959;53.626;11.410;2022-08-19T14:45:25;32.60;;;22.17;;